»·PEaware :: ASA2400 KDEN-KLAX

ASA2400 :: KDEN-KLAX

FLIGHT INFORMATION

Flight Status: Arrived
Operator:
Alaska Airlines
More flights by this operator :: More flights under this callsign
Pilot: Anonymous 34525 (34525)
Aircraft: MCDONNELL-DOUGLAS DC-6/B LIFTMASTER
(DC6)
More flights by this aircraft type
Origin: KDEN Denver Intl
United States
Destination: KLAX Los Angeles Intl
United States
More flights between these airports :: More routes between these airports
Route: ROCKI5 DBL V134 JNC V8 MMM V21 HEC V12 PMD KIMMO3
File this flight plan on PilotEdge
Remarks:
Altitude:
(Current/Filed)
14,000ft
Speed:
(Current/Filed)
265kts
Departed: 08-Oct-21 09:10 AM
Arrived: 08-Oct-21 01:13 PM
Distance/Time
Traveled:
748nm/4:03
Distance/Time
To Go:
Arrived

Flight Plot

Page will automatically refresh every two minutes.

Flight plan parsing failed; only flown route is shown


Map Options




Map Legend


Flown Route
Filed Route
Departure Airport
Arrival Airport
Navaid (VOR, NDB)
Fix

Horizontal Profiles

Position Reports

Time Latitude Longitude Heading Altitude Ground
Speed
08-Oct-21 08:23 39.863600 -104.674261 225 5384ft 0kts
08-Oct-21 08:24 39.863600 -104.674261 225 5384ft 0kts
08-Oct-21 08:25 39.863600 -104.674261 225 5384ft 0kts
08-Oct-21 08:26 39.863600 -104.674261 225 5384ft 0kts
08-Oct-21 08:27 39.863600 -104.674261 225 5384ft 0kts
08-Oct-21 08:28 39.863600 -104.674261 225 5384ft 0kts
08-Oct-21 08:29 39.863600 -104.674261 225 5384ft 0kts
08-Oct-21 08:30 39.863600 -104.674261 225 5384ft 0kts
08-Oct-21 08:31 39.863600 -104.674261 225 5384ft 0kts
08-Oct-21 08:32 39.863600 -104.674261 225 5384ft 0kts
08-Oct-21 08:33 39.863600 -104.674261 225 5384ft 0kts
08-Oct-21 08:34 39.863600 -104.674261 225 5384ft 0kts
08-Oct-21 08:35 39.863600 -104.674261 225 5384ft 0kts
08-Oct-21 08:36 39.863600 -104.674261 225 5384ft 0kts
08-Oct-21 08:37 39.863600 -104.674261 225 5384ft 0kts
08-Oct-21 08:38 39.863600 -104.674261 225 5384ft 0kts
08-Oct-21 08:39 39.863600 -104.674261 225 5384ft 0kts
08-Oct-21 08:40 39.863600 -104.674261 225 5384ft 0kts
08-Oct-21 08:41 39.863600 -104.674261 225 5384ft 0kts
08-Oct-21 08:42 39.863600 -104.674261 225 5384ft 0kts
08-Oct-21 08:43 39.863600 -104.674261 225 5384ft 0kts
08-Oct-21 08:44 39.863600 -104.674261 225 5384ft 0kts
08-Oct-21 08:44 39.863600 -104.674261 225 5384ft 0kts
08-Oct-21 08:45 39.863600 -104.674261 225 5384ft 0kts
08-Oct-21 08:47 39.863600 -104.674261 225 5384ft 0kts
08-Oct-21 08:48 39.863600 -104.674261 225 5384ft 0kts
08-Oct-21 08:49 39.863600 -104.674261 225 5384ft 0kts
08-Oct-21 08:50 39.863600 -104.674261 225 5384ft 0kts
08-Oct-21 08:51 39.863600 -104.674261 225 5384ft 0kts
08-Oct-21 08:51 39.863843 -104.673935 225 5384ft 2kts
08-Oct-21 08:53 39.864120 -104.673563 225 5384ft 0kts
08-Oct-21 08:54 39.864120 -104.673563 225 5384ft 0kts
08-Oct-21 08:55 39.864120 -104.673563 225 5384ft 0kts
08-Oct-21 08:55 39.864120 -104.673563 225 5384ft 0kts
08-Oct-21 08:56 39.864120 -104.673563 225 5384ft 0kts
08-Oct-21 08:57 39.864157 -104.673876 301 5384ft 6kts
08-Oct-21 08:58 39.864305 -104.678213 268 5384ft 11kts
08-Oct-21 08:59 39.864636 -104.681572 242 5384ft 8kts
08-Oct-21 09:00 39.862741 -104.683912 179 5366ft 10kts
08-Oct-21 09:01 39.860294 -104.683945 181 5368ft 10kts
08-Oct-21 09:02 39.857947 -104.683976 181 5373ft 6kts
08-Oct-21 09:03 39.854705 -104.684023 181 5378ft 19kts
08-Oct-21 09:04 39.848930 -104.684103 178 5374ft 20kts
08-Oct-21 09:05 39.843584 -104.684163 180 5362ft 16kts
08-Oct-21 09:06 39.841856 -104.684182 181 5362ft 0kts
08-Oct-21 09:07 39.841856 -104.684182 181 5362ft 0kts
08-Oct-21 09:08 39.840712 -104.684657 254 5363ft 6kts
08-Oct-21 09:09 39.840828 -104.707713 270 5420ft 123kts
08-Oct-21 09:10 39.840856 -104.755032 267 6122ft 143kts
08-Oct-21 09:11 39.812611 -104.788084 195 6857ft 159kts
08-Oct-21 09:12 39.768127 -104.802357 189 7629ft 158kts
08-Oct-21 09:13 39.725062 -104.812466 205 8541ft 154kts
08-Oct-21 09:14 39.721290 -104.865001 271 9250ft 161kts
08-Oct-21 09:15 39.727029 -104.923626 279 10249ft 164kts
08-Oct-21 09:16 39.735395 -104.981285 278 11101ft 162kts
08-Oct-21 09:17 39.743660 -105.038940 278 11813ft 162kts
08-Oct-21 09:18 39.751846 -105.096300 278 12488ft 161kts
08-Oct-21 09:19 39.752696 -105.153001 258 13090ft 157kts
08-Oct-21 09:20 39.745585 -105.209175 259 13738ft 157kts
08-Oct-21 09:21 39.738833 -105.265164 260 14345ft 155kts
08-Oct-21 09:22 39.731971 -105.320747 260 14925ft 155kts
08-Oct-21 09:23 39.725155 -105.377126 261 15327ft 162kts
08-Oct-21 09:24 39.717922 -105.436081 259 15731ft 167kts
08-Oct-21 09:25 39.710603 -105.495466 260 16390ft 166kts
08-Oct-21 09:26 39.703388 -105.554632 260 16989ft 164kts
08-Oct-21 09:27 39.696266 -105.613221 259 17554ft 164kts
08-Oct-21 09:28 39.689100 -105.671331 259 17979ft 163kts
08-Oct-21 09:29 39.679746 -105.730694 256 18283ft 176kts
08-Oct-21 09:30 39.666864 -105.793648 255 18581ft 185kts
08-Oct-21 09:31 39.652488 -105.863212 255 18499ft 211kts
08-Oct-21 09:32 39.636573 -105.940818 254 18491ft 228kts
08-Oct-21 09:33 39.620139 -106.020096 254 18496ft 228kts
08-Oct-21 09:34 39.603921 -106.098976 254 18466ft 223kts
08-Oct-21 09:35 39.588160 -106.175233 254 18458ft 215kts
08-Oct-21 09:36 39.572599 -106.250733 253 18483ft 221kts
08-Oct-21 09:37 39.556674 -106.327719 253 18470ft 223kts
08-Oct-21 09:38 39.540505 -106.406048 252 18485ft 229kts
08-Oct-21 09:39 39.524267 -106.484223 253 18455ft 221kts
08-Oct-21 09:40 39.508423 -106.561209 253 18446ft 223kts
08-Oct-21 09:41 39.492728 -106.636889 253 18460ft 217kts
08-Oct-21 09:42 39.476739 -106.714044 253 18466ft 223kts
08-Oct-21 09:43 39.460536 -106.792512 252 18456ft 226kts
08-Oct-21 09:44 39.444476 -106.869870 252 18423ft 218kts
08-Oct-21 09:45 39.429435 -106.946084 255 18467ft 224kts
08-Oct-21 09:46 39.414480 -107.023391 253 18468ft 221kts
08-Oct-21 09:47 39.399109 -107.103084 253 18445ft 233kts
08-Oct-21 09:48 39.383626 -107.183361 253 18446ft 227kts
08-Oct-21 09:49 39.368416 -107.262076 253 18434ft 222kts
08-Oct-21 09:50 39.353496 -107.339219 252 18453ft 219kts
08-Oct-21 09:51 39.338527 -107.416371 253 18443ft 223kts
08-Oct-21 09:52 39.323601 -107.493758 252 18425ft 220kts
08-Oct-21 09:53 39.308551 -107.571632 252 18423ft 226kts
08-Oct-21 09:54 39.293496 -107.649119 252 18422ft 221kts
08-Oct-21 09:55 39.278489 -107.726831 252 18421ft 224kts
08-Oct-21 09:56 39.263417 -107.804435 252 18417ft 220kts
08-Oct-21 09:57 39.248418 -107.880283 251 18422ft 217kts
08-Oct-21 09:58 39.233191 -107.955827 251 18430ft 218kts
08-Oct-21 09:59 39.217549 -108.031042 251 18421ft 217kts
08-Oct-21 10:00 39.202301 -108.106284 251 18428ft 217kts
08-Oct-21 10:01 39.186632 -108.182312 250 18400ft 217kts
08-Oct-21 10:02 39.171304 -108.255835 251 18415ft 210kts
08-Oct-21 10:03 39.156228 -108.328239 250 18438ft 211kts
08-Oct-21 10:04 39.141073 -108.400981 250 18448ft 212kts
08-Oct-21 10:05 39.125510 -108.475891 250 18413ft 219kts
08-Oct-21 10:06 39.109815 -108.551360 250 18419ft 217kts
08-Oct-21 10:07 39.094346 -108.625699 250 18421ft 215kts
08-Oct-21 10:08 39.078957 -108.699548 250 18361ft 204kts
08-Oct-21 10:09 39.064367 -108.769638 250 18412ft 201kts
08-Oct-21 10:10 39.044443 -108.835954 255 18415ft 202kts
08-Oct-21 10:11 39.031790 -108.905783 245 18416ft 199kts
08-Oct-21 10:12 39.011012 -108.972081 242 18413ft 200kts
08-Oct-21 10:13 38.988759 -109.038597 242 18409ft 204kts
08-Oct-21 10:14 38.966390 -109.105713 243 18416ft 203kts
08-Oct-21 10:15 38.944141 -109.172292 242 18425ft 205kts
08-Oct-21 10:16 38.921392 -109.240671 242 18394ft 207kts
08-Oct-21 10:17 38.898988 -109.308197 242 18400ft 205kts
08-Oct-21 10:18 38.876622 -109.375338 242 18388ft 204kts
08-Oct-21 10:19 38.853899 -109.441088 241 18393ft 199kts
08-Oct-21 10:20 38.831448 -109.506168 241 18391ft 200kts
08-Oct-21 10:21 38.808854 -109.571719 241 18385ft 201kts
08-Oct-21 10:22 38.786300 -109.636894 241 18398ft 201kts
08-Oct-21 10:23 38.763589 -109.702601 241 18387ft 200kts
08-Oct-21 10:24 38.741005 -109.767830 240 18389ft 200kts
08-Oct-21 10:25 38.718839 -109.831644 240 18391ft 196kts
08-Oct-21 10:26 38.696569 -109.895978 241 18392ft 197kts
08-Oct-21 10:27 38.674157 -109.960644 240 18386ft 200kts
08-Oct-21 10:28 38.651553 -110.025569 240 18389ft 200kts
08-Oct-21 10:29 38.628871 -110.091127 240 18383ft 202kts
08-Oct-21 10:30 38.606170 -110.156430 240 18377ft 199kts
08-Oct-21 10:31 38.583626 -110.221226 240 18382ft 199kts
08-Oct-21 10:32 38.561155 -110.285793 240 18379ft 197kts
08-Oct-21 10:33 38.538999 -110.349489 240 18375ft 194kts
08-Oct-21 10:34 38.517167 -110.412095 239 18363ft 191kts
08-Oct-21 10:35 38.495470 -110.474455 240 18365ft 194kts
08-Oct-21 10:36 38.473417 -110.537623 239 18357ft 196kts
08-Oct-21 10:37 38.451220 -110.601198 239 18359ft 196kts
08-Oct-21 10:38 38.429045 -110.664732 239 18359ft 196kts
08-Oct-21 10:39 38.402537 -110.723794 207 18360ft 189kts
08-Oct-21 10:40 38.355011 -110.749181 206 18357ft 188kts
08-Oct-21 10:41 38.310190 -110.780234 242 18350ft 188kts
08-Oct-21 10:42 38.306720 -110.850047 252 18359ft 192kts
08-Oct-21 10:43 38.289684 -110.912387 238 18352ft 187kts
08-Oct-21 10:44 38.266362 -110.971193 236 18352ft 187kts
08-Oct-21 10:45 38.242010 -111.030912 236 18338ft 185kts
08-Oct-21 10:46 38.218041 -111.089783 236 18341ft 187kts
08-Oct-21 10:47 38.193560 -111.147847 235 18329ft 184kts
08-Oct-21 10:48 38.169680 -111.203330 235 18296ft 173kts
08-Oct-21 10:49 38.145396 -111.259251 235 18345ft 186kts
08-Oct-21 10:50 38.120256 -111.317049 234 18297ft 182kts
08-Oct-21 10:51 38.095961 -111.373068 235 18316ft 179kts
08-Oct-21 10:52 38.072683 -111.426512 234 18342ft 171kts
08-Oct-21 10:53 38.048475 -111.482116 234 18354ft 184kts
08-Oct-21 10:54 38.023633 -111.539158 235 18315ft 184kts
08-Oct-21 10:55 37.998251 -111.597492 236 18375ft 196kts
08-Oct-21 10:56 37.972278 -111.657055 236 18327ft 193kts
08-Oct-21 10:57 37.946934 -111.715411 235 18315ft 185kts
08-Oct-21 10:58 37.922971 -111.770288 236 18356ft 192kts
08-Oct-21 10:59 37.897381 -111.828814 234 18281ft 180kts
08-Oct-21 11:00 37.873922 -111.882204 235 18317ft 174kts
08-Oct-21 11:01 37.849543 -111.937964 239 18329ft 184kts
08-Oct-21 11:02 37.824026 -111.996244 236 18388ft 190kts
08-Oct-21 11:03 37.798415 -112.054907 236 18327ft 189kts
08-Oct-21 11:04 37.773147 -112.112585 236 18306ft 185kts
08-Oct-21 11:05 37.748489 -112.168818 236 18314ft 182kts
08-Oct-21 11:06 37.723799 -112.225097 236 18316ft 184kts
08-Oct-21 11:07 37.698963 -112.281606 236 18312ft 183kts
08-Oct-21 11:08 37.673520 -112.337239 235 18323ft 184kts
08-Oct-21 11:09 37.647820 -112.394248 236 18319ft 186kts
08-Oct-21 11:10 37.622042 -112.450365 236 18323ft 185kts
08-Oct-21 11:11 37.596448 -112.506262 236 18326ft 183kts
08-Oct-21 11:12 37.570967 -112.561875 236 18323ft 181kts
08-Oct-21 11:13 37.545676 -112.616842 236 18326ft 181kts
08-Oct-21 11:14 37.520144 -112.672343 236 18322ft 184kts
08-Oct-21 11:15 37.494830 -112.727501 237 18329ft 182kts
08-Oct-21 11:16 37.468474 -112.784756 236 18352ft 193kts
08-Oct-21 11:17 37.441402 -112.843375 236 18333ft 192kts
08-Oct-21 11:18 37.414619 -112.901643 237 18356ft 196kts
08-Oct-21 11:19 37.387289 -112.961057 237 18333ft 194kts
08-Oct-21 11:20 37.360554 -113.018698 235 18338ft 186kts
08-Oct-21 11:21 37.334225 -113.075791 237 18351ft 191kts
08-Oct-21 11:23 37.306965 -113.134738 236 18370ft 198kts
08-Oct-21 11:24 37.279391 -113.194559 236 18331ft 194kts
08-Oct-21 11:25 37.251573 -113.254544 236 18356ft 202kts
08-Oct-21 11:26 37.223098 -113.315970 236 18353ft 205kts
08-Oct-21 11:27 37.194135 -113.378384 236 18361ft 209kts
08-Oct-21 11:28 37.164638 -113.442074 236 18358ft 212kts
08-Oct-21 11:29 37.134789 -113.506295 236 18355ft 214kts
08-Oct-21 11:30 37.104774 -113.570956 236 18356ft 215kts
08-Oct-21 11:31 37.074669 -113.635703 236 18353ft 214kts
08-Oct-21 11:32 37.043595 -113.698732 233 18349ft 211kts
08-Oct-21 11:33 37.011455 -113.759618 233 18362ft 209kts
08-Oct-21 11:34 36.977945 -113.820905 232 18355ft 216kts
08-Oct-21 11:35 36.943040 -113.882511 231 18363ft 219kts
08-Oct-21 11:36 36.907177 -113.943823 230 18359ft 218kts
08-Oct-21 11:37 36.873185 -114.000200 229 18356ft 217kts
08-Oct-21 11:38 36.835992 -114.059909 228 18361ft 216kts
08-Oct-21 11:39 36.807626 -114.123681 267 18362ft 229kts
08-Oct-21 11:40 36.802315 -114.199489 242 18357ft 216kts
08-Oct-21 11:41 36.775671 -114.266577 238 18361ft 216kts
08-Oct-21 11:42 36.738036 -114.319673 203 18363ft 211kts
08-Oct-21 11:43 36.683533 -114.348032 211 18361ft 211kts
08-Oct-21 11:44 36.633303 -114.386912 211 18368ft 212kts
08-Oct-21 11:45 36.582488 -114.425257 212 18379ft 215kts
08-Oct-21 11:45 36.539684 -114.457508 212 18383ft 216kts
08-Oct-21 11:47 36.479774 -114.502557 212 18390ft 215kts
08-Oct-21 11:48 36.428780 -114.540776 212 18398ft 213kts
08-Oct-21 11:49 36.378242 -114.578666 212 18391ft 212kts
08-Oct-21 11:49 36.335856 -114.610376 211 18393ft 214kts
08-Oct-21 11:51 36.276457 -114.654708 211 18401ft 213kts
08-Oct-21 11:52 36.225819 -114.692574 212 18404ft 215kts
08-Oct-21 11:53 36.174159 -114.731027 211 18399ft 217kts
08-Oct-21 11:53 36.130831 -114.763278 211 18412ft 219kts
08-Oct-21 11:54 36.078497 -114.802192 211 18420ft 219kts
08-Oct-21 11:55 36.026352 -114.840913 211 18421ft 217kts
08-Oct-21 11:57 35.965998 -114.885294 210 18420ft 219kts
08-Oct-21 11:57 35.921670 -114.916537 209 18421ft 220kts
08-Oct-21 11:58 35.893660 -114.979256 218 18424ft 213kts
08-Oct-21 11:59 35.846880 -115.025991 222 18420ft 217kts
08-Oct-21 12:00 35.806954 -115.082210 226 18427ft 220kts
08-Oct-21 12:01 35.766047 -115.138668 228 18424ft 217kts
08-Oct-21 12:02 35.727130 -115.192639 226 18318ft 210kts
08-Oct-21 12:03 35.688054 -115.246551 226 18418ft 212kts
08-Oct-21 12:04 35.648335 -115.301424 227 18429ft 218kts
08-Oct-21 12:05 35.607425 -115.357764 227 18422ft 221kts
08-Oct-21 12:06 35.566223 -115.414455 227 18420ft 223kts
08-Oct-21 12:07 35.525131 -115.471030 227 18419ft 221kts
08-Oct-21 12:09 35.477716 -115.536191 227 18432ft 217kts
08-Oct-21 12:09 35.444021 -115.582368 227 18420ft 218kts
08-Oct-21 12:10 35.403181 -115.638404 227 18416ft 221kts
08-Oct-21 12:11 35.362081 -115.694698 227 18418ft 220kts
08-Oct-21 12:12 35.321363 -115.750401 227 18418ft 218kts
08-Oct-21 12:13 35.280737 -115.805926 227 18410ft 221kts
08-Oct-21 12:14 35.239505 -115.862232 227 18413ft 222kts
08-Oct-21 12:15 35.198219 -115.918538 227 18415ft 222kts
08-Oct-21 12:16 35.157012 -115.974729 228 18414ft 221kts
08-Oct-21 12:17 35.116063 -116.030467 227 18408ft 219kts
08-Oct-21 12:18 35.075559 -116.085561 228 18402ft 217kts
08-Oct-21 12:19 35.035352 -116.140220 228 18395ft 216kts
08-Oct-21 12:20 34.995372 -116.194471 228 18392ft 214kts
08-Oct-21 12:21 34.955602 -116.248398 228 18389ft 212kts
08-Oct-21 12:22 34.916439 -116.301482 228 18390ft 209kts
08-Oct-21 12:23 34.877406 -116.354232 228 18392ft 207kts
08-Oct-21 12:24 34.838201 -116.407295 228 18393ft 214kts
08-Oct-21 12:25 34.798059 -116.461495 228 18386ft 214kts
08-Oct-21 12:26 34.779331 -116.526856 261 18387ft 216kts
08-Oct-21 12:27 34.776186 -116.599573 259 18389ft 215kts
08-Oct-21 12:28 34.771928 -116.671936 259 18388ft 214kts
08-Oct-21 12:29 34.764789 -116.743363 256 18360ft 210kts
08-Oct-21 12:30 34.757780 -116.813150 256 18364ft 208kts
08-Oct-21 12:31 34.750714 -116.883320 256 18355ft 204kts
08-Oct-21 12:32 34.743623 -116.953529 257 17445ft 216kts
08-Oct-21 12:33 34.736244 -117.026512 257 16693ft 218kts
08-Oct-21 12:34 34.728906 -117.098954 257 16082ft 213kts
08-Oct-21 12:35 34.721840 -117.169044 257 15651ft 206kts
08-Oct-21 12:36 34.714853 -117.238224 258 15398ft 206kts
08-Oct-21 12:37 34.707911 -117.307309 258 15084ft 206kts
08-Oct-21 12:38 34.700808 -117.377697 258 14895ft 214kts
08-Oct-21 12:39 34.693423 -117.450338 259 14643ft 222kts
08-Oct-21 12:40 34.685716 -117.526620 259 14064ft 230kts
08-Oct-21 12:41 34.677954 -117.603650 259 13363ft 227kts
08-Oct-21 12:42 34.670354 -117.678686 260 12639ft 222kts
08-Oct-21 12:43 34.662879 -117.752782 260 11947ft 219kts
08-Oct-21 12:44 34.655480 -117.825812 261 11266ft 216kts
08-Oct-21 12:45 34.648226 -117.897498 261 10659ft 212kts
08-Oct-21 12:46 34.641019 -117.968804 261 10003ft 214kts
08-Oct-21 12:47 34.633739 -118.040709 262 9511ft 213kts
08-Oct-21 12:48 34.613316 -118.102685 213 9103ft 212kts
08-Oct-21 12:49 34.575091 -118.154506 236 8614ft 209kts
08-Oct-21 12:50 34.539319 -118.211841 234 8042ft 214kts
08-Oct-21 12:51 34.503643 -118.269172 235 7920ft 208kts
08-Oct-21 12:52 34.469401 -118.324077 234 8010ft 202kts
08-Oct-21 12:53 34.435468 -118.378186 234 8022ft 201kts
08-Oct-21 12:54 34.390434 -118.405869 150 8026ft 218kts
08-Oct-21 12:55 34.335695 -118.372082 156 8023ft 229kts
08-Oct-21 12:56 34.276699 -118.337489 157 7532ft 242kts
08-Oct-21 12:57 34.216709 -118.302418 156 6892ft 236kts
08-Oct-21 12:58 34.160765 -118.269622 156 6942ft 209kts
08-Oct-21 12:59 34.109742 -118.239821 157 7017ft 206kts
08-Oct-21 13:00 34.061398 -118.199747 139 6824ft 221kts
08-Oct-21 13:01 34.015559 -118.148600 138 6161ft 224kts
08-Oct-21 13:02 33.964967 -118.109693 193 5343ft 219kts
08-Oct-21 13:03 33.959669 -118.163269 335 4674ft 215kts
08-Oct-21 13:04 34.018837 -118.168537 6 4100ft 214kts
08-Oct-21 13:05 34.028086 -118.114284 151 3482ft 210kts
08-Oct-21 13:06 33.990004 -118.148906 245 2921ft 202kts
08-Oct-21 13:07 33.966190 -118.210156 254 2444ft 192kts
08-Oct-21 13:08 33.963441 -118.269648 267 2170ft 167kts
08-Oct-21 13:09 33.959888 -118.320610 259 1677ft 152kts
08-Oct-21 13:10 33.955292 -118.368503 262 975ft 124kts
08-Oct-21 13:11 33.952006 -118.402684 260 160ft 86kts
08-Oct-21 13:12 33.950200 -118.420299 262 125ft 17kts
08-Oct-21 13:13 33.948267 -118.427065 223 125ft 9kts
08-Oct-21 13:14 33.946933 -118.427815 182 125ft 0kts
08-Oct-21 13:15 33.946376 -118.427176 89 125ft 8kts

Navigation Log

Ident Type
Flight plan parsing failed, navigation log unavailable